sensor_id;sensor_type;location;lat;lon;timestamp;pressure;altitude;pressure_sealevel;temperature;humidity
82562;BME280;72228;51.208;10.468;2024-01-06T00:00:35;97823.75;;;1.69;90.48
82562;BME280;72228;51.208;10.468;2024-01-06T00:03:01;97820.03;;;1.59;90.74
82562;BME280;72228;51.208;10.468;2024-01-06T00:05:27;97821.06;;;1.64;90.87
82562;BME280;72228;51.208;10.468;2024-01-06T00:07:53;97817.81;;;1.61;91.55
82562;BME280;72228;51.208;10.468;2024-01-06T00:10:18;97822.41;;;1.71;91.47
82562;BME280;72228;51.208;10.468;2024-01-06T00:12:44;97819.63;;;1.76;91.68
82562;BME280;72228;51.208;10.468;2024-01-06T00:15:11;97818.88;;;1.95;90.85
82562;BME280;72228;51.208;10.468;2024-01-06T00:17:36;97822.44;;;1.95;90.66
82562;BME280;72228;51.208;10.468;2024-01-06T00:20:02;97812.47;;;2.04;90.81
82562;BME280;72228;51.208;10.468;2024-01-06T00:22:30;97817.41;;;2.02;90.83
82562;BME280;72228;51.208;10.468;2024-01-06T00:24:56;97815.50;;;2.03;90.70
82562;BME280;72228;51.208;10.468;2024-01-06T00:27:22;97816.81;;;2.05;90.92
82562;BME280;72228;51.208;10.468;2024-01-06T00:29:47;97823.34;;;2.09;90.54
82562;BME280;72228;51.208;10.468;2024-01-06T00:32:13;97822.78;;;2.12;90.67
82562;BME280;72228;51.208;10.468;2024-01-06T00:34:39;97816.72;;;2.15;90.76
82562;BME280;72228;51.208;10.468;2024-01-06T00:37:05;97827.59;;;2.21;90.66
82562;BME280;72228;51.208;10.468;2024-01-06T00:39:31;97830.28;;;2.26;90.83
82562;BME280;72228;51.208;10.468;2024-01-06T00:41:57;97825.56;;;2.31;90.92
82562;BME280;72228;51.208;10.468;2024-01-06T00:44:23;97827.41;;;2.36;90.59
82562;BME280;72228;51.208;10.468;2024-01-06T00:46:48;97832.31;;;2.39;90.45
82562;BME280;72228;51.208;10.468;2024-01-06T00:49:14;97833.13;;;2.39;90.10
82562;BME280;72228;51.208;10.468;2024-01-06T00:51:40;97839.91;;;2.42;90.54
82562;BME280;72228;51.208;10.468;2024-01-06T00:54:06;97835.81;;;2.45;90.64
82562;BME280;72228;51.208;10.468;2024-01-06T00:56:32;97837.41;;;2.46;90.41
82562;BME280;72228;51.208;10.468;2024-01-06T00:58:57;97834.84;;;2.54;89.71
82562;BME280;72228;51.208;10.468;2024-01-06T01:01:23;97841.66;;;2.57;89.09
82562;BME280;72228;51.208;10.468;2024-01-06T01:03:49;97837.47;;;2.64;89.39
82562;BME280;72228;51.208;10.468;2024-01-06T01:06:15;97850.78;;;2.71;88.80
82562;BME280;72228;51.208;10.468;2024-01-06T01:08:41;97844.44;;;2.76;88.69
82562;BME280;72228;51.208;10.468;2024-01-06T01:11:06;97848.50;;;2.97;88.19
82562;BME280;72228;51.208;10.468;2024-01-06T01:13:32;97847.53;;;2.88;88.07
82562;BME280;72228;51.208;10.468;2024-01-06T01:15:58;97855.53;;;2.84;88.10
82562;BME280;72228;51.208;10.468;2024-01-06T01:18:24;97852.50;;;2.86;87.61
82562;BME280;72228;51.208;10.468;2024-01-06T01:20:50;97861.00;;;2.84;87.52
82562;BME280;72228;51.208;10.468;2024-01-06T01:23:16;97863.53;;;2.81;87.94
82562;BME280;72228;51.208;10.468;2024-01-06T01:25:41;97871.72;;;2.81;87.64
82562;BME280;72228;51.208;10.468;2024-01-06T01:28:07;97865.91;;;2.87;87.97
82562;BME280;72228;51.208;10.468;2024-01-06T01:30:33;97859.59;;;2.87;87.55
82562;BME280;72228;51.208;10.468;2024-01-06T01:32:59;97870.19;;;2.93;87.59
82562;BME280;72228;51.208;10.468;2024-01-06T01:35:25;97874.78;;;2.98;86.76
82562;BME280;72228;51.208;10.468;2024-01-06T01:37:50;97872.19;;;3.07;86.97
82562;BME280;72228;51.208;10.468;2024-01-06T01:40:16;97882.41;;;3.01;87.32
82562;BME280;72228;51.208;10.468;2024-01-06T01:42:43;97877.97;;;3.05;88.10
82562;BME280;72228;51.208;10.468;2024-01-06T01:45:09;97878.97;;;3.09;87.51
82562;BME280;72228;51.208;10.468;2024-01-06T01:47:36;97875.59;;;3.17;87.58
82562;BME280;72228;51.208;10.468;2024-01-06T01:50:03;97871.38;;;3.25;86.91
82562;BME280;72228;51.208;10.468;2024-01-06T01:52:29;97876.63;;;3.21;86.00
82562;BME280;72228;51.208;10.468;2024-01-06T01:54:56;97871.13;;;3.21;86.78
82562;BME280;72228;51.208;10.468;2024-01-06T01:57:24;97872.56;;;3.19;87.28
82562;BME280;72228;51.208;10.468;2024-01-06T01:59:52;97878.66;;;3.16;87.85
82562;BME280;72228;51.208;10.468;2024-01-06T02:02:19;97877.28;;;3.13;87.89
82562;BME280;72228;51.208;10.468;2024-01-06T02:04:47;97877.59;;;3.12;87.95
82562;BME280;72228;51.208;10.468;2024-01-06T02:07:13;97874.56;;;3.13;88.12
82562;BME280;72228;51.208;10.468;2024-01-06T02:09:39;97880.63;;;3.10;88.28
82562;BME280;72228;51.208;10.468;2024-01-06T02:12:05;97889.94;;;3.09;88.25
82562;BME280;72228;51.208;10.468;2024-01-06T02:14:31;97879.81;;;3.10;87.68
82562;BME280;72228;51.208;10.468;2024-01-06T02:16:58;97893.22;;;3.11;88.07
82562;BME280;72228;51.208;10.468;2024-01-06T02:19:24;97885.31;;;3.10;88.51
82562;BME280;72228;51.208;10.468;2024-01-06T02:21:53;97887.19;;;3.09;88.53
82562;BME280;72228;51.208;10.468;2024-01-06T02:24:20;97884.13;;;3.16;87.83
82562;BME280;72228;51.208;10.468;2024-01-06T02:26:46;97887.13;;;3.14;88.44
82562;BME280;72228;51.208;10.468;2024-01-06T02:29:11;97885.50;;;3.13;88.55
82562;BME280;72228;51.208;10.468;2024-01-06T02:31:37;97885.50;;;3.13;88.00
82562;BME280;72228;51.208;10.468;2024-01-06T02:34:03;97884.94;;;3.16;88.18
82562;BME280;72228;51.208;10.468;2024-01-06T02:36:29;97881.28;;;3.21;88.00
82562;BME280;72228;51.208;10.468;2024-01-06T02:38:55;97878.78;;;3.25;88.06
82562;BME280;72228;51.208;10.468;2024-01-06T02:41:20;97880.94;;;3.28;87.93
82562;BME280;72228;51.208;10.468;2024-01-06T02:43:46;97884.19;;;3.30;87.80
82562;BME280;72228;51.208;10.468;2024-01-06T02:46:12;97883.56;;;3.33;87.40
82562;BME280;72228;51.208;10.468;2024-01-06T02:48:38;97888.47;;;3.36;87.42
82562;BME280;72228;51.208;10.468;2024-01-06T02:51:04;97883.44;;;3.43;86.31
82562;BME280;72228;51.208;10.468;2024-01-06T02:53:31;97887.16;;;3.52;86.44
82562;BME280;72228;51.208;10.468;2024-01-06T02:55:57;97897.50;;;3.55;85.98
82562;BME280;72228;51.208;10.468;2024-01-06T02:58:22;97898.53;;;3.59;85.80
82562;BME280;72228;51.208;10.468;2024-01-06T03:00:48;97908.31;;;3.65;85.92
82562;BME280;72228;51.208;10.468;2024-01-06T03:03:14;97904.44;;;3.66;84.89
82562;BME280;72228;51.208;10.468;2024-01-06T03:05:40;97903.31;;;3.67;85.94
82562;BME280;72228;51.208;10.468;2024-01-06T03:08:06;97908.66;;;3.78;84.57
82562;BME280;72228;51.208;10.468;2024-01-06T03:10:31;97901.25;;;3.78;84.36
82562;BME280;72228;51.208;10.468;2024-01-06T03:12:57;97906.34;;;3.85;84.33
82562;BME280;72228;51.208;10.468;2024-01-06T03:15:23;97907.97;;;3.86;84.03
82562;BME280;72228;51.208;10.468;2024-01-06T03:26:20;97925.88;;;3.97;84.10
82562;BME280;72228;51.208;10.468;2024-01-06T03:28:49;97923.63;;;3.99;83.32
82562;BME280;72228;51.208;10.468;2024-01-06T03:31:15;97918.16;;;3.99;83.80
82562;BME280;72228;51.208;10.468;2024-01-06T03:33:43;97922.81;;;3.98;83.53
82562;BME280;72228;51.208;10.468;2024-01-06T03:36:09;97923.94;;;3.97;83.92
82562;BME280;72228;51.208;10.468;2024-01-06T03:38:38;97925.88;;;3.97;83.42
82562;BME280;72228;51.208;10.468;2024-01-06T03:41:03;97917.41;;;3.93;83.92
82562;BME280;72228;51.208;10.468;2024-01-06T03:43:29;97922.91;;;3.93;83.30
82562;BME280;72228;51.208;10.468;2024-01-06T03:45:55;97922.63;;;3.95;83.77
82562;BME280;72228;51.208;10.468;2024-01-06T03:48:23;97918.22;;;3.94;84.00
82562;BME280;72228;51.208;10.468;2024-01-06T03:50:49;97918.34;;;3.89;83.92
82562;BME280;72228;51.208;10.468;2024-01-06T03:53:15;97925.94;;;3.92;83.97
82562;BME280;72228;51.208;10.468;2024-01-06T03:55:41;97925.66;;;3.93;84.05
82562;BME280;72228;51.208;10.468;2024-01-06T03:58:07;97924.56;;;3.94;83.51
82562;BME280;72228;51.208;10.468;2024-01-06T04:00:33;97922.72;;;3.90;84.12
82562;BME280;72228;51.208;10.468;2024-01-06T04:02:58;97930.72;;;3.86;84.62
82562;BME280;72228;51.208;10.468;2024-01-06T04:05:24;97930.94;;;3.90;84.02
82562;BME280;72228;51.208;10.468;2024-01-06T04:07:50;97927.66;;;3.88;84.57
82562;BME280;72228;51.208;10.468;2024-01-06T04:10:16;97934.19;;;3.92;84.13
82562;BME280;72228;51.208;10.468;2024-01-06T04:12:42;97932.69;;;3.99;84.08
82562;BME280;72228;51.208;10.468;2024-01-06T04:15:08;97941.50;;;3.96;83.90
82562;BME280;72228;51.208;10.468;2024-01-06T04:17:34;97942.09;;;3.93;84.52
82562;BME280;72228;51.208;10.468;2024-01-06T04:20:00;97945.44;;;3.90;84.03
82562;BME280;72228;51.208;10.468;2024-01-06T04:22:26;97940.28;;;3.89;84.44
82562;BME280;72228;51.208;10.468;2024-01-06T04:24:52;97942.56;;;3.82;84.86
82562;BME280;72228;51.208;10.468;2024-01-06T04:27:18;97950.59;;;3.78;85.03
82562;BME280;72228;51.208;10.468;2024-01-06T04:29:44;97948.66;;;3.79;84.90
82562;BME280;72228;51.208;10.468;2024-01-06T04:32:09;97956.06;;;3.78;84.83
82562;BME280;72228;51.208;10.468;2024-01-06T04:34:36;97961.25;;;3.80;84.89
82562;BME280;72228;51.208;10.468;2024-01-06T04:37:01;97957.94;;;3.83;85.11
82562;BME280;72228;51.208;10.468;2024-01-06T04:39:27;97955.25;;;3.78;85.07
82562;BME280;72228;51.208;10.468;2024-01-06T04:41:53;97953.63;;;3.76;84.83
82562;BME280;72228;51.208;10.468;2024-01-06T04:44:20;97955.06;;;3.88;84.26
82562;BME280;72228;51.208;10.468;2024-01-06T04:46:46;97953.59;;;3.95;83.97
82562;BME280;72228;51.208;10.468;2024-01-06T04:49:12;97950.47;;;4.02;83.98
82562;BME280;72228;51.208;10.468;2024-01-06T04:51:37;97945.56;;;3.99;84.48
82562;BME280;72228;51.208;10.468;2024-01-06T04:54:03;97948.13;;;3.95;84.57
82562;BME280;72228;51.208;10.468;2024-01-06T04:56:29;97950.88;;;3.95;84.72
82562;BME280;72228;51.208;10.468;2024-01-06T04:58:55;97953.88;;;3.94;85.02
82562;BME280;72228;51.208;10.468;2024-01-06T05:01:23;97960.41;;;3.98;83.82
82562;BME280;72228;51.208;10.468;2024-01-06T05:03:49;97963.31;;;3.88;84.25
82562;BME280;72228;51.208;10.468;2024-01-06T05:06:15;97966.41;;;3.81;85.40
82562;BME280;72228;51.208;10.468;2024-01-06T05:08:41;97962.44;;;3.73;85.28
82562;BME280;72228;51.208;10.468;2024-01-06T05:11:10;97965.56;;;3.67;84.92
82562;BME280;72228;51.208;10.468;2024-01-06T05:13:37;97965.69;;;3.57;85.86
82562;BME280;72228;51.208;10.468;2024-01-06T05:16:03;97967.25;;;3.44;86.17
82562;BME280;72228;51.208;10.468;2024-01-06T05:18:29;97971.25;;;3.33;86.48
82562;BME280;72228;51.208;10.468;2024-01-06T05:20:55;97979.81;;;3.26;86.92
82562;BME280;72228;51.208;10.468;2024-01-06T05:23:21;97979.06;;;3.20;87.00
82562;BME280;72228;51.208;10.468;2024-01-06T05:25:47;97980.47;;;3.18;87.06
82562;BME280;72228;51.208;10.468;2024-01-06T05:28:13;97979.22;;;3.10;87.74
82562;BME280;72228;51.208;10.468;2024-01-06T05:30:38;97969.03;;;3.35;86.84
82562;BME280;72228;51.208;10.468;2024-01-06T05:33:05;97975.94;;;3.08;87.37
82562;BME280;72228;51.208;10.468;2024-01-06T05:35:31;97982.38;;;2.99;88.26
82562;BME280;72228;51.208;10.468;2024-01-06T05:37:56;97984.97;;;2.85;88.51
82562;BME280;72228;51.208;10.468;2024-01-06T05:40:22;97983.69;;;3.01;88.63
82562;BME280;72228;51.208;10.468;2024-01-06T05:42:48;97994.13;;;2.99;89.05
82562;BME280;72228;51.208;10.468;2024-01-06T05:45:14;97989.13;;;3.06;88.90
82562;BME280;72228;51.208;10.468;2024-01-06T05:47:40;97979.28;;;3.05;88.65
82562;BME280;72228;51.208;10.468;2024-01-06T05:50:06;97981.16;;;3.10;88.60
82562;BME280;72228;51.208;10.468;2024-01-06T05:52:35;97975.59;;;2.91;88.95
82562;BME280;72228;51.208;10.468;2024-01-06T05:55:01;97977.72;;;2.75;89.66
82562;BME280;72228;51.208;10.468;2024-01-06T05:57:27;97983.06;;;2.61;90.08
82562;BME280;72228;51.208;10.468;2024-01-06T05:59:53;97976.88;;;2.51;90.36
82562;BME280;72228;51.208;10.468;2024-01-06T06:02:19;97995.34;;;2.35;91.39
82562;BME280;72228;51.208;10.468;2024-01-06T06:04:45;98001.75;;;2.25;91.57
82562;BME280;72228;51.208;10.468;2024-01-06T06:07:10;98010.84;;;2.15;91.55
82562;BME280;72228;51.208;10.468;2024-01-06T06:09:36;98007.63;;;2.08;91.88
82562;BME280;72228;51.208;10.468;2024-01-06T06:12:03;98014.22;;;2.02;92.65
82562;BME280;72228;51.208;10.468;2024-01-06T06:14:29;98009.63;;;1.98;93.19
82562;BME280;72228;51.208;10.468;2024-01-06T06:16:55;98011.56;;;1.92;93.15
82562;BME280;72228;51.208;10.468;2024-01-06T06:19:22;98013.50;;;1.92;93.65
82562;BME280;72228;51.208;10.468;2024-01-06T06:21:48;98013.84;;;1.80;93.34
82562;BME280;72228;51.208;10.468;2024-01-06T06:24:13;98020.13;;;1.80;93.84
82562;BME280;72228;51.208;10.468;2024-01-06T06:26:39;98021.22;;;1.79;93.81
82562;BME280;72228;51.208;10.468;2024-01-06T06:29:05;98020.97;;;1.76;94.37
82562;BME280;72228;51.208;10.468;2024-01-06T06:31:31;98018.78;;;1.78;94.28
82562;BME280;72228;51.208;10.468;2024-01-06T06:33:58;98020.13;;;1.80;94.83
82562;BME280;72228;51.208;10.468;2024-01-06T06:36:23;98030.69;;;1.92;94.42
82562;BME280;72228;51.208;10.468;2024-01-06T06:38:49;98037.25;;;1.96;94.87
82562;BME280;72228;51.208;10.468;2024-01-06T06:41:15;98043.56;;;1.92;94.33
82562;BME280;72228;51.208;10.468;2024-01-06T06:43:41;98049.28;;;1.95;94.13
82562;BME280;72228;51.208;10.468;2024-01-06T06:46:08;98055.81;;;1.94;94.27
82562;BME280;72228;51.208;10.468;2024-01-06T06:48:34;98062.38;;;1.98;94.13
82562;BME280;72228;51.208;10.468;2024-01-06T06:51:02;98059.59;;;2.03;94.18
82562;BME280;72228;51.208;10.468;2024-01-06T06:53:28;98063.44;;;2.02;93.91
82562;BME280;72228;51.208;10.468;2024-01-06T06:55:54;98065.09;;;1.98;93.97
82562;BME280;72228;51.208;10.468;2024-01-06T06:58:19;98072.22;;;1.94;94.09
82562;BME280;72228;51.208;10.468;2024-01-06T07:00:45;98072.81;;;1.91;93.96
82562;BME280;72228;51.208;10.468;2024-01-06T07:03:11;98074.94;;;1.94;93.34
82562;BME280;72228;51.208;10.468;2024-01-06T07:05:37;98089.75;;;1.88;93.95
82562;BME280;72228;51.208;10.468;2024-01-06T07:08:04;98088.13;;;1.87;93.90
82562;BME280;72228;51.208;10.468;2024-01-06T07:10:30;98094.72;;;1.81;93.85
82562;BME280;72228;51.208;10.468;2024-01-06T07:12:56;98101.00;;;1.81;93.95
82562;BME280;72228;51.208;10.468;2024-01-06T07:15:22;98104.03;;;1.80;94.65
82562;BME280;72228;51.208;10.468;2024-01-06T07:17:48;98108.06;;;1.87;94.18
82562;BME280;72228;51.208;10.468;2024-01-06T07:20:14;98111.91;;;1.86;94.60
82562;BME280;72228;51.208;10.468;2024-01-06T07:22:40;98119.81;;;1.88;94.52
82562;BME280;72228;51.208;10.468;2024-01-06T07:25:06;98116.53;;;1.91;94.01
82562;BME280;72228;51.208;10.468;2024-01-06T07:27:33;98117.63;;;1.95;94.14
82562;BME280;72228;51.208;10.468;2024-01-06T07:29:58;98127.66;;;2.05;94.08
82562;BME280;72228;51.208;10.468;2024-01-06T07:32:24;98128.34;;;2.26;93.92
82562;BME280;72228;51.208;10.468;2024-01-06T07:34:51;98136.25;;;2.27;93.65
82562;BME280;72228;51.208;10.468;2024-01-06T07:37:16;98142.41;;;2.48;93.17
82562;BME280;72228;51.208;10.468;2024-01-06T07:39:42;98131.38;;;2.58;92.76
82562;BME280;72228;51.208;10.468;2024-01-06T07:42:08;98143.69;;;2.61;92.30
82562;BME280;72228;51.208;10.468;2024-01-06T07:44:34;98141.22;;;2.59;92.38
82562;BME280;72228;51.208;10.468;2024-01-06T07:47:00;98147.13;;;2.72;92.02
82562;BME280;72228;51.208;10.468;2024-01-06T07:49:27;98161.84;;;2.81;91.34
82562;BME280;72228;51.208;10.468;2024-01-06T07:51:53;98160.78;;;2.77;91.16
82562;BME280;72228;51.208;10.468;2024-01-06T07:54:19;98157.75;;;2.78;91.04
82562;BME280;72228;51.208;10.468;2024-01-06T07:56:46;98169.47;;;2.84;90.53
82562;BME280;72228;51.208;10.468;2024-01-06T07:59:12;98163.47;;;2.82;91.02
82562;BME280;72228;51.208;10.468;2024-01-06T08:01:38;98177.63;;;2.94;90.43
82562;BME280;72228;51.208;10.468;2024-01-06T08:04:04;98172.69;;;2.91;89.88
82562;BME280;72228;51.208;10.468;2024-01-06T08:06:29;98179.72;;;3.02;89.48
82562;BME280;72228;51.208;10.468;2024-01-06T08:08:55;98186.91;;;2.98;89.80
82562;BME280;72228;51.208;10.468;2024-01-06T08:11:21;98187.81;;;2.83;90.02
82562;BME280;72228;51.208;10.468;2024-01-06T08:13:47;98195.03;;;2.74;90.58
82562;BME280;72228;51.208;10.468;2024-01-06T08:16:14;98198.25;;;2.81;90.20
82562;BME280;72228;51.208;10.468;2024-01-06T08:18:41;98191.13;;;2.85;89.77
82562;BME280;72228;51.208;10.468;2024-01-06T08:21:06;98196.97;;;2.74;90.02
82562;BME280;72228;51.208;10.468;2024-01-06T08:23:33;98202.06;;;2.85;89.94
82562;BME280;72228;51.208;10.468;2024-01-06T08:26:00;98197.94;;;2.88;89.45
82562;BME280;72228;51.208;10.468;2024-01-06T08:28:26;98205.00;;;2.94;89.99
82562;BME280;72228;51.208;10.468;2024-01-06T08:30:52;98204.50;;;2.87;89.87
82562;BME280;72228;51.208;10.468;2024-01-06T08:33:18;98214.66;;;2.86;89.96
82562;BME280;72228;51.208;10.468;2024-01-06T08:35:44;98217.41;;;2.81;90.21
82562;BME280;72228;51.208;10.468;2024-01-06T08:38:10;98220.97;;;2.82;90.51
82562;BME280;72228;51.208;10.468;2024-01-06T08:40:36;98222.88;;;2.81;90.45
82562;BME280;72228;51.208;10.468;2024-01-06T08:43:02;98225.91;;;2.80;90.62
82562;BME280;72228;51.208;10.468;2024-01-06T08:45:28;98227.25;;;2.82;90.12
82562;BME280;72228;51.208;10.468;2024-01-06T08:47:54;98238.41;;;2.91;90.14
82562;BME280;72228;51.208;10.468;2024-01-06T08:50:20;98234.75;;;3.06;89.94
82562;BME280;72228;51.208;10.468;2024-01-06T08:52:45;98234.38;;;3.17;89.60
82562;BME280;72228;51.208;10.468;2024-01-06T08:55:11;98235.41;;;3.21;88.25
82562;BME280;72228;51.208;10.468;2024-01-06T08:57:37;98246.09;;;3.23;88.28
82562;BME280;72228;51.208;10.468;2024-01-06T09:00:04;98239.31;;;3.15;88.28
82562;BME280;72228;51.208;10.468;2024-01-06T09:02:30;98250.91;;;3.02;89.13
82562;BME280;72228;51.208;10.468;2024-01-06T09:04:56;98251.47;;;3.04;89.52
82562;BME280;72228;51.208;10.468;2024-01-06T09:07:21;98257.47;;;3.06;89.46
82562;BME280;72228;51.208;10.468;2024-01-06T09:09:49;98251.91;;;3.16;89.20
82562;BME280;72228;51.208;10.468;2024-01-06T09:12:15;98251.25;;;3.30;88.60
82562;BME280;72228;51.208;10.468;2024-01-06T09:14:40;98254.84;;;3.25;88.48
82562;BME280;72228;51.208;10.468;2024-01-06T09:17:06;98267.19;;;3.22;89.08
82562;BME280;72228;51.208;10.468;2024-01-06T09:19:32;98267.72;;;3.25;88.82
82562;BME280;72228;51.208;10.468;2024-01-06T09:21:57;98265.72;;;3.35;88.50
82562;BME280;72228;51.208;10.468;2024-01-06T09:24:26;98271.41;;;3.39;88.59
82562;BME280;72228;51.208;10.468;2024-01-06T09:26:51;98273.31;;;3.43;88.16
82562;BME280;72228;51.208;10.468;2024-01-06T09:29:17;98272.50;;;3.43;88.31
82562;BME280;72228;51.208;10.468;2024-01-06T09:31:43;98278.41;;;3.55;88.46
82562;BME280;72228;51.208;10.468;2024-01-06T09:34:09;98283.03;;;3.60;87.11
82562;BME280;72228;51.208;10.468;2024-01-06T09:36:35;98284.25;;;3.43;87.87
82562;BME280;72228;51.208;10.468;2024-01-06T09:39:01;98282.56;;;3.53;87.57
82562;BME280;72228;51.208;10.468;2024-01-06T09:41:27;98287.97;;;3.58;88.04
82562;BME280;72228;51.208;10.468;2024-01-06T09:43:53;98289.75;;;3.72;87.01
82562;BME280;72228;51.208;10.468;2024-01-06T09:46:26;98297.34;;;3.81;86.23
82562;BME280;72228;51.208;10.468;2024-01-06T09:48:53;98304.53;;;3.76;86.44
82562;BME280;72228;51.208;10.468;2024-01-06T09:51:21;98301.25;;;3.74;86.54
82562;BME280;72228;51.208;10.468;2024-01-06T09:53:58;98299.66;;;3.68;86.59
82562;BME280;72228;51.208;10.468;2024-01-06T09:56:25;98303.88;;;3.56;87.38
82562;BME280;72228;51.208;10.468;2024-01-06T09:58:52;98308.50;;;3.60;87.20
82562;BME280;72228;51.208;10.468;2024-01-06T10:01:18;98304.03;;;3.69;87.21
82562;BME280;72228;51.208;10.468;2024-01-06T10:03:44;98305.59;;;3.75;87.41
82562;BME280;72228;51.208;10.468;2024-01-06T10:06:14;98311.03;;;3.81;86.74
82562;BME280;72228;51.208;10.468;2024-01-06T10:08:42;98316.91;;;3.98;86.21
82562;BME280;72228;51.208;10.468;2024-01-06T10:11:08;98308.69;;;3.98;85.56
82562;BME280;72228;51.208;10.468;2024-01-06T10:13:35;98313.06;;;3.99;85.75
82562;BME280;72228;51.208;10.468;2024-01-06T10:16:01;98307.56;;;3.99;85.83
82562;BME280;72228;51.208;10.468;2024-01-06T10:18:27;98315.53;;;4.00;86.47
82562;BME280;72228;51.208;10.468;2024-01-06T10:20:56;98315.84;;;4.18;85.81
82562;BME280;72228;51.208;10.468;2024-01-06T10:23:26;98314.94;;;4.03;85.93
82562;BME280;72228;51.208;10.468;2024-01-06T10:25:53;98314.13;;;4.27;85.16
82562;BME280;72228;51.208;10.468;2024-01-06T10:28:23;98320.88;;;4.35;84.66
82562;BME280;72228;51.208;10.468;2024-01-06T10:30:52;98327.19;;;4.35;84.68
82562;BME280;72228;51.208;10.468;2024-01-06T10:33:23;98322.97;;;4.43;84.29
82562;BME280;72228;51.208;10.468;2024-01-06T10:35:50;98314.81;;;4.38;84.23
82562;BME280;72228;51.208;10.468;2024-01-06T10:38:17;98312.53;;;4.45;84.88
82562;BME280;72228;51.208;10.468;2024-01-06T10:41:06;98320.31;;;4.38;85.21
82562;BME280;72228;51.208;10.468;2024-01-06T10:43:36;98316.50;;;4.34;85.53
82562;BME280;72228;51.208;10.468;2024-01-06T10:46:06;98322.97;;;4.43;86.15
82562;BME280;72228;51.208;10.468;2024-01-06T10:48:36;98315.22;;;4.50;85.04
82562;BME280;72228;51.208;10.468;2024-01-06T10:51:09;98309.38;;;4.75;84.08
82562;BME280;72228;51.208;10.468;2024-01-06T10:53:35;98306.50;;;4.86;82.62
82562;BME280;72228;51.208;10.468;2024-01-06T10:56:03;98302.28;;;4.74;83.37
82562;BME280;72228;51.208;10.468;2024-01-06T10:58:32;98311.81;;;4.77;83.57
82562;BME280;72228;51.208;10.468;2024-01-06T11:01:00;98312.13;;;4.75;82.72
82562;BME280;72228;51.208;10.468;2024-01-06T11:03:27;98310.06;;;4.67;83.43
82562;BME280;72228;51.208;10.468;2024-01-06T11:05:54;98310.63;;;4.64;83.87
82562;BME280;72228;51.208;10.468;2024-01-06T11:08:21;98310.13;;;4.62;84.59
82562;BME280;72228;51.208;10.468;2024-01-06T11:10:47;98309.50;;;4.65;86.08
82562;BME280;72228;51.208;10.468;2024-01-06T11:13:21;98316.78;;;4.56;85.49
82562;BME280;72228;51.208;10.468;2024-01-06T11:15:49;98316.03;;;4.50;85.34
82562;BME280;72228;51.208;10.468;2024-01-06T11:18:33;98309.44;;;4.51;85.83
82562;BME280;72228;51.208;10.468;2024-01-06T11:21:19;98312.16;;;4.51;84.83
82562;BME280;72228;51.208;10.468;2024-01-06T11:26:32;98309.91;;;4.77;83.73
82562;BME280;72228;51.208;10.468;2024-01-06T11:29:00;98308.66;;;4.89;83.73
82562;BME280;72228;51.208;10.468;2024-01-06T11:31:30;98310.81;;;4.92;82.90
82562;BME280;72228;51.208;10.468;2024-01-06T11:33:56;98304.28;;;4.88;83.67
82562;BME280;72228;51.208;10.468;2024-01-06T11:36:23;98301.09;;;4.80;84.08
82562;BME280;72228;51.208;10.468;2024-01-06T11:38:48;98303.09;;;4.75;83.61
82562;BME280;72228;51.208;10.468;2024-01-06T11:41:47;98304.25;;;4.69;84.74
82562;BME280;72228;51.208;10.468;2024-01-06T11:44:13;98303.50;;;4.63;84.54
82562;BME280;72228;51.208;10.468;2024-01-06T11:46:40;98304.91;;;4.61;85.00
82562;BME280;72228;51.208;10.468;2024-01-06T11:49:09;98301.09;;;4.80;84.93
82562;BME280;72228;51.208;10.468;2024-01-06T11:51:36;98303.75;;;4.86;84.12
82562;BME280;72228;51.208;10.468;2024-01-06T11:54:02;98306.41;;;4.72;85.25
82562;BME280;72228;51.208;10.468;2024-01-06T11:56:27;98304.84;;;4.84;84.81
82562;BME280;72228;51.208;10.468;2024-01-06T11:58:53;98305.22;;;4.97;83.27
82562;BME280;72228;51.208;10.468;2024-01-06T12:01:19;98307.81;;;5.07;83.62
82562;BME280;72228;51.208;10.468;2024-01-06T12:03:45;98305.53;;;5.14;82.26
82562;BME280;72228;51.208;10.468;2024-01-06T12:06:11;98309.53;;;5.22;82.13
82562;BME280;72228;51.208;10.468;2024-01-06T12:08:36;98304.19;;;5.11;82.17
82562;BME280;72228;51.208;10.468;2024-01-06T12:11:03;98306.13;;;5.11;82.89
82562;BME280;72228;51.208;10.468;2024-01-06T12:13:29;98314.88;;;5.13;82.76
82562;BME280;72228;51.208;10.468;2024-01-06T12:15:55;98314.22;;;5.02;83.23
82562;BME280;72228;51.208;10.468;2024-01-06T12:18:22;98311.31;;;4.94;83.54
82562;BME280;72228;51.208;10.468;2024-01-06T12:20:50;98310.06;;;5.05;83.49
82562;BME280;72228;51.208;10.468;2024-01-06T12:23:28;98305.47;;;5.00;84.01
82562;BME280;72228;51.208;10.468;2024-01-06T12:25:57;98323.94;;;4.95;83.10
82562;BME280;72228;51.208;10.468;2024-01-06T12:28:23;98317.88;;;4.98;83.16
82562;BME280;72228;51.208;10.468;2024-01-06T12:30:48;98318.69;;;4.98;83.14
82562;BME280;72228;51.208;10.468;2024-01-06T12:33:14;98311.25;;;4.99;83.72
82562;BME280;72228;51.208;10.468;2024-01-06T12:35:40;98308.94;;;5.06;83.20
82562;BME280;72228;51.208;10.468;2024-01-06T12:38:10;98313.25;;;5.12;84.15
82562;BME280;72228;51.208;10.468;2024-01-06T12:40:37;98313.84;;;5.09;83.53
82562;BME280;72228;51.208;10.468;2024-01-06T12:43:06;98323.19;;;5.08;84.10
82562;BME280;72228;51.208;10.468;2024-01-06T12:45:32;98318.88;;;5.02;85.13
82562;BME280;72228;51.208;10.468;2024-01-06T12:47:58;98320.25;;;5.04;86.02
82562;BME280;72228;51.208;10.468;2024-01-06T12:50:23;98325.50;;;5.01;85.86
82562;BME280;72228;51.208;10.468;2024-01-06T12:52:49;98321.34;;;5.03;86.75
82562;BME280;72228;51.208;10.468;2024-01-06T12:55:15;98322.31;;;4.94;86.42
82562;BME280;72228;51.208;10.468;2024-01-06T12:57:42;98327.19;;;4.97;87.06
82562;BME280;72228;51.208;10.468;2024-01-06T13:00:08;98327.38;;;4.87;86.62
82562;BME280;72228;51.208;10.468;2024-01-06T13:02:37;98319.63;;;4.89;87.36
82562;BME280;72228;51.208;10.468;2024-01-06T13:05:04;98328.94;;;4.93;86.98
82562;BME280;72228;51.208;10.468;2024-01-06T13:07:30;98326.75;;;4.90;87.43